Time;durP1;ratioP1;P1;durP2;ratioP2;P2;SDS_P1;SDS_P2;PMS_P1;PMS_P2;Temp;Humidity;BMP_temperature;BMP_pressure;BME280_temperature;BME280_humidity;BME280_pressure;Samples;Min_cycle;Max_cycle;Signal;HPM_P1;HPM_P2
2022/05/28 00:02:06;;;;;;;;;;;;;;;11.60;74.42;96842.63;5056422;28;19996;-75
2022/05/28 00:04:32;;;;;;;;;;;;;;;11.62;73.95;96835.34;5056606;28;19942;-77
2022/05/28 00:06:58;;;;;;;;;;;;;;;11.64;74.53;96841.19;5056337;28;19950;-76
2022/05/28 00:09:24;;;;;;;;;;;;;;;11.66;74.42;96839.16;5056030;28;20043;-76
2022/05/28 00:11:49;;;;;;;;;;;;;;;11.68;74.82;96836.31;5056151;28;19985;-75
2022/05/28 00:14:16;;;;;;;;;;;;;;;11.69;73.84;96854.47;5055911;28;19969;-76
2022/05/28 00:16:42;;;;;;;;;;;;;;;11.67;73.27;96859.13;5056088;28;19995;-75
2022/05/28 00:19:08;;;;;;;;;;;;;;;11.63;74.33;96865.84;5056117;28;20412;-76
2022/05/28 00:21:34;;;;;;;;;;;;;;;11.62;75.64;96868.69;5056111;28;19957;-75
2022/05/28 00:24:00;;;;;;;;;;;;;;;11.62;75.33;96869.50;5055789;28;19952;-75
2022/05/28 00:26:26;;;;;;;;;;;;;;;11.62;76.03;96866.06;5056000;28;20404;-75
2022/05/28 00:28:52;;;;;;;;;;;;;;;11.64;77.81;96867.47;5056008;28;19943;-75
2022/05/28 00:31:18;;;;;;;;;;;;;;;11.65;76.55;96863.00;5055794;28;19952;-75
2022/05/28 00:33:44;;;;;;;;;;;;;;;11.65;78.59;96869.06;5055717;28;19953;-76
2022/05/28 00:36:11;;;;;;;;;;;;;;;11.63;75.70;96857.97;5055596;28;19958;-76
2022/05/28 00:38:38;;;;;;;;;;;;;;;11.60;76.15;96854.97;5044111;28;19977;-76
2022/05/28 00:41:04;;;;;;;;;;;;;;;11.58;74.46;96853.34;5055491;28;20410;-76
2022/05/28 00:43:30;;;;;;;;;;;;;;;11.57;75.88;96871.97;5054567;28;19956;-76
2022/05/28 00:46:01;;;;;;;;;;;;;;;11.58;74.10;96865.69;5055639;28;19973;-75
2022/05/28 00:48:29;;;;;;;;;;;;;;;11.55;73.05;96856.41;5055550;28;19973;-76
2022/05/28 00:50:57;;;;;;;;;;;;;;;11.53;73.42;96857.66;5055335;28;19966;-75
2022/05/28 00:53:23;;;;;;;;;;;;;;;11.51;74.23;96860.50;5055427;28;19950;-76
2022/05/28 00:55:49;;;;;;;;;;;;;;;11.52;72.96;96840.28;5055303;28;19953;-75
2022/05/28 00:58:15;;;;;;;;;;;;;;;11.51;73.13;96847.34;5054721;28;19977;-75
2022/05/28 01:00:41;;;;;;;;;;;;;;;11.53;73.53;96857.66;5055297;28;19960;-75
2022/05/28 01:03:10;;;;;;;;;;;;;;;11.54;73.65;96861.88;5055228;28;19963;-75
2022/05/28 01:05:41;;;;;;;;;;;;;;;11.54;73.21;96854.78;5055222;28;19962;-76
2022/05/28 01:08:12;;;;;;;;;;;;;;;11.55;73.39;96855.63;5055364;28;19956;-76
2022/05/28 01:10:57;;;;;;;;;;;;;;;11.55;73.91;96869.56;5054695;28;19976;-75
2022/05/28 01:13:42;;;;;;;;;;;;;;;11.57;74.45;96864.09;5054651;28;19962;-76
2022/05/28 01:16:11;;;;;;;;;;;;;;;11.60;74.68;96863.66;5055758;28;20007;-75
2022/05/28 01:18:40;;;;;;;;;;;;;;;11.62;74.79;96864.25;5054896;28;19968;-76
2022/05/28 01:21:08;;;;;;;;;;;;;;;11.62;75.18;96852.94;5055017;28;19956;-76
2022/05/28 01:23:48;;;;;;;;;;;;;;;11.64;75.23;96861.41;5054963;28;19963;-77
2022/05/28 01:26:13;;;;;;;;;;;;;;;11.63;75.22;96854.53;5055318;28;19949;-75
2022/05/28 01:28:44;;;;;;;;;;;;;;;11.65;74.96;96855.13;5053881;28;19955;-76
2022/05/28 01:31:11;;;;;;;;;;;;;;;11.68;74.77;96860.75;5054706;28;19951;-76
2022/05/28 01:33:41;;;;;;;;;;;;;;;11.69;75.01;96857.09;5054637;28;19957;-76
2022/05/28 01:36:09;;;;;;;;;;;;;;;11.70;74.97;96853.47;5054471;28;20312;-75
2022/05/28 01:38:37;;;;;;;;;;;;;;;11.72;75.05;96854.06;5054586;28;19963;-76
2022/05/28 01:41:06;;;;;;;;;;;;;;;11.71;75.12;96852.44;5054601;28;20429;-76
2022/05/28 01:43:37;;;;;;;;;;;;;;;11.71;75.51;96855.06;5053928;28;19966;-76
2022/05/28 01:46:07;;;;;;;;;;;;;;;11.69;74.85;96851.06;5054471;28;19953;-76
2022/05/28 01:48:33;;;;;;;;;;;;;;;11.65;74.48;96848.03;5054244;28;19951;-75
2022/05/28 01:51:01;;;;;;;;;;;;;;;11.63;74.04;96846.66;5054390;28;19955;-75
2022/05/28 01:56:12;;;;;;;;;;;;;;;11.55;72.60;96832.78;5054508;28;19956;-76
2022/05/28 01:58:38;;;;;;;;;;;;;;;11.51;72.74;96836.06;5054282;28;20339;-76
2022/05/28 02:01:05;;;;;;;;;;;;;;;11.47;72.87;96832.25;5054001;28;19959;-76
2022/05/28 02:03:32;;;;;;;;;;;;;;;11.44;72.85;96836.06;5053896;28;19952;-75
2022/05/28 02:05:58;;;;;;;;;;;;;;;11.45;72.79;96842.16;5053925;28;20404;-75
2022/05/28 02:08:24;;;;;;;;;;;;;;;11.44;71.93;96836.06;5054144;28;19960;-75
2022/05/28 02:10:56;;;;;;;;;;;;;;;11.38;72.08;96835.13;5053760;28;19962;-75
2022/05/28 02:13:24;;;;;;;;;;;;;;;11.34;72.14;96835.78;5054187;28;20348;-75
2022/05/28 02:16:11;;;;;;;;;;;;;;;11.29;72.24;96832.97;5053791;28;19963;-75
2022/05/28 02:18:55;;;;;;;;;;;;;;;11.26;72.52;96834.19;5054170;28;19976;-76
2022/05/28 02:21:32;;;;;;;;;;;;;;;11.26;72.68;96838.66;5054294;28;19946;-76
2022/05/28 02:23:58;;;;;;;;;;;;;;;11.27;72.65;96837.63;5053844;28;19958;-76
2022/05/28 02:26:31;;;;;;;;;;;;;;;11.25;72.62;96842.28;5053643;28;20012;-76
2022/05/28 02:28:59;;;;;;;;;;;;;;;11.22;72.04;96840.09;5053712;28;20314;-75
2022/05/28 02:31:26;;;;;;;;;;;;;;;11.21;72.18;96835.84;5053500;28;19951;-75
2022/05/28 02:33:53;;;;;;;;;;;;;;;11.19;72.03;96833.41;5053680;28;20331;-75
2022/05/28 02:36:19;;;;;;;;;;;;;;;11.15;72.16;96827.81;5053487;28;19948;-75
2022/05/28 02:38:45;;;;;;;;;;;;;;;11.12;71.68;96827.41;5053410;28;19973;-75
2022/05/28 02:41:12;;;;;;;;;;;;;;;11.09;72.24;96833.09;5053680;28;19955;-75
2022/05/28 02:43:38;;;;;;;;;;;;;;;11.05;72.13;96830.09;5053480;28;20342;-75
2022/05/28 02:46:04;;;;;;;;;;;;;;;11.01;72.02;96839.41;5053343;28;19970;-75
2022/05/28 02:48:31;;;;;;;;;;;;;;;10.99;71.14;96830.94;5053938;28;19952;-75
2022/05/28 02:51:03;;;;;;;;;;;;;;;10.94;71.71;96831.56;5053437;28;20334;-76
2022/05/28 02:53:29;;;;;;;;;;;;;;;10.90;71.17;96825.13;5053526;28;19961;-76
2022/05/28 02:55:55;;;;;;;;;;;;;;;10.85;71.16;96830.19;5053228;28;20020;-76
2022/05/28 02:58:21;;;;;;;;;;;;;;;10.82;70.22;96825.38;5053400;28;20003;-75
2022/05/28 03:00:47;;;;;;;;;;;;;;;10.77;70.00;96830.44;5053243;28;19966;-75
2022/05/28 03:03:19;;;;;;;;;;;;;;;10.71;69.95;96831.28;5053220;28;20067;-76
2022/05/28 03:05:45;;;;;;;;;;;;;;;10.67;69.33;96830.91;5054325;28;20339;-76
2022/05/28 03:08:11;;;;;;;;;;;;;;;10.67;69.48;96841.38;5057374;28;20377;-75
2022/05/28 03:10:37;;;;;;;;;;;;;;;10.70;69.57;96835.72;5057336;28;20042;-75
2022/05/28 03:13:03;;;;;;;;;;;;;;;10.72;69.01;96835.50;5036267;28;20015;-75
2022/05/28 03:15:29;;;;;;;;;;;;;;;10.72;68.67;96823.19;5037202;28;20005;-76
2022/05/28 03:17:56;;;;;;;;;;;;;;;10.72;68.42;96827.63;5037354;28;19967;-76
2022/05/28 03:20:22;;;;;;;;;;;;;;;10.69;68.54;96828.88;5037361;28;19961;-74
2022/05/28 03:22:48;;;;;;;;;;;;;;;10.67;68.40;96830.91;5037020;28;20007;-75
2022/05/28 03:25:14;;;;;;;;;;;;;;;10.68;68.51;96829.88;5037503;28;19957;-74
2022/05/28 03:27:40;;;;;;;;;;;;;;;10.70;68.26;96827.84;5036991;28;19961;-75
2022/05/28 03:30:06;;;;;;;;;;;;;;;10.69;68.02;96828.88;5037145;28;19953;-75
2022/05/28 03:32:32;;;;;;;;;;;;;;;10.70;67.88;96824.41;5036779;28;19959;-74
2022/05/28 03:34:58;;;;;;;;;;;;;;;10.69;67.70;96828.06;5036931;28;19959;-75
2022/05/28 03:37:24;;;;;;;;;;;;;;;10.68;67.47;96832.50;5036704;28;20008;-75
2022/05/28 03:39:49;;;;;;;;;;;;;;;10.67;67.30;96832.72;5037300;28;20039;-75
2022/05/28 03:42:15;;;;;;;;;;;;;;;10.68;67.47;96836.94;5036633;28;20034;-75
2022/05/28 03:44:41;;;;;;;;;;;;;;;10.64;67.66;96840.97;5037128;28;20435;-75
2022/05/28 03:47:07;;;;;;;;;;;;;;;10.63;68.07;96844.63;5036693;28;20022;-76
2022/05/28 03:49:35;;;;;;;;;;;;;;;10.61;68.17;96852.72;5036759;28;20050;-76
2022/05/28 03:52:02;;;;;;;;;;;;;;;10.59;68.04;96854.72;5036477;28;19950;-75
2022/05/28 03:54:28;;;;;;;;;;;;;;;10.56;67.89;96861.19;5036635;28;19965;-76
2022/05/28 03:56:57;;;;;;;;;;;;;;;10.53;67.82;96864.22;5036482;28;20324;-75
2022/05/28 03:59:23;;;;;;;;;;;;;;;10.52;67.99;96864.41;5036516;28;19973;-76
2022/05/28 04:01:48;;;;;;;;;;;;;;;10.49;67.89;96864.84;5036399;28;20050;-75
2022/05/28 04:04:14;;;;;;;;;;;;;;;10.48;68.05;96873.75;5036316;28;19971;-76
2022/05/28 04:06:40;;;;;;;;;;;;;;;10.45;68.12;96874.13;5036615;28;19965;-76
2022/05/28 04:09:07;;;;;;;;;;;;;;;10.42;68.27;96871.94;5036327;28;19990;-77
2022/05/28 04:11:32;;;;;;;;;;;;;;;10.40;68.65;96879.22;5043699;28;20000;-76
2022/05/28 04:13:58;;;;;;;;;;;;;;;10.36;68.97;96881.44;5056266;28;20416;-76
2022/05/28 04:16:25;;;;;;;;;;;;;;;10.36;69.01;96878.81;5056193;28;19958;-75
2022/05/28 04:18:51;;;;;;;;;;;;;;;10.36;69.21;96884.84;5054619;28;19979;-75
2022/05/28 04:21:17;;;;;;;;;;;;;;;10.36;69.02;96886.66;5055825;28;20050;-76
2022/05/28 04:23:43;;;;;;;;;;;;;;;10.34;69.23;96897.34;5055970;28;19962;-76
2022/05/28 04:26:09;;;;;;;;;;;;;;;10.33;69.33;96887.06;5055867;28;19987;-76
2022/05/28 04:28:35;;;;;;;;;;;;;;;10.33;69.36;96884.44;5056101;28;19952;-77
2022/05/28 04:31:01;;;;;;;;;;;;;;;10.32;69.40;96881.03;5055716;28;19958;-75
2022/05/28 04:33:27;;;;;;;;;;;;;;;10.33;69.43;96884.44;5037851;28;19963;-76
2022/05/28 04:35:53;;;;;;;;;;;;;;;10.36;69.29;96882.22;5056047;28;20418;-76
2022/05/28 04:38:19;;;;;;;;;;;;;;;10.36;69.43;96884.84;5055663;28;19974;-77
2022/05/28 04:40:44;;;;;;;;;;;;;;;10.35;69.50;96891.13;5055327;28;19956;-76
2022/05/28 04:43:10;;;;;;;;;;;;;;;10.32;69.67;96894.13;5055940;28;19962;-76
2022/05/28 04:45:36;;;;;;;;;;;;;;;10.30;69.80;96895.34;5055524;28;19965;-76
2022/05/28 04:48:02;;;;;;;;;;;;;;;10.38;69.77;96889.88;5055560;28;19987;-76
2022/05/28 04:50:29;;;;;;;;;;;;;;;10.57;69.57;96893.47;5055818;28;20324;-75
2022/05/28 04:52:55;;;;;;;;;;;;;;;10.82;69.21;96896.22;5055412;28;20317;-76
2022/05/28 04:55:21;;;;;;;;;;;;;;;11.09;68.68;96878.53;5055748;28;20016;-75
2022/05/28 04:57:48;;;;;;;;;;;;;;;11.41;68.16;96883.00;5055518;28;20043;-75
2022/05/28 05:00:15;;;;;;;;;;;;;;;11.75;67.06;96873.84;5055291;28;19955;-76
2022/05/28 05:02:41;;;;;;;;;;;;;;;12.04;65.61;96854.00;5055144;28;19965;-75
2022/05/28 05:05:07;;;;;;;;;;;;;;;12.34;64.91;96848.84;5055226;28;20315;-75
2022/05/28 05:07:34;;;;;;;;;;;;;;;12.66;64.45;96848.72;5054958;28;19954;-76
2022/05/28 05:10:00;;;;;;;;;;;;;;;12.93;63.91;96841.25;5055047;28;19953;-76
2022/05/28 05:12:25;;;;;;;;;;;;;;;13.19;62.94;96837.47;5054933;28;19977;-75
2022/05/28 05:14:51;;;;;;;;;;;;;;;13.46;62.46;96833.66;5054997;28;20322;-75
2022/05/28 05:17:17;;;;;;;;;;;;;;;13.71;61.45;96820.28;5054562;28;19960;-75
2022/05/28 05:19:43;;;;;;;;;;;;;;;13.83;58.11;96786.84;5054786;28;19964;-75
2022/05/28 05:22:09;;;;;;;;;;;;;;;13.72;58.77;96785.81;5053904;28;20035;-75
2022/05/28 05:24:35;;;;;;;;;;;;;;;13.65;60.39;96806.22;5055430;28;19963;-75
2022/05/28 05:27:02;;;;;;;;;;;;;;;13.73;60.04;96805.06;5054646;28;19959;-75
2022/05/28 05:29:28;;;;;;;;;;;;;;;13.95;60.64;96813.19;5054121;28;19959;-75
2022/05/28 05:31:53;;;;;;;;;;;;;;;14.19;59.05;96800.78;5054726;28;20505;-76
2022/05/28 05:34:20;;;;;;;;;;;;;;;14.39;59.52;96801.22;5054531;28;19985;-76
2022/05/28 05:36:45;;;;;;;;;;;;;;;14.57;58.57;96796.81;5054866;28;19957;-76
2022/05/28 05:39:11;;;;;;;;;;;;;;;14.70;58.46;96798.38;5054374;28;20018;-76
2022/05/28 05:41:41;;;;;;;;;;;;;;;14.87;57.85;96790.53;5054832;28;20056;-76
2022/05/28 05:44:08;;;;;;;;;;;;;;;15.02;57.79;96794.25;5054325;28;19962;-76
2022/05/28 05:46:34;;;;;;;;;;;;;;;15.22;58.09;96804.38;5054209;28;19969;-76
2022/05/28 05:49:00;;;;;;;;;;;;;;;15.37;53.80;96747.50;5054879;28;19956;-76
2022/05/28 05:51:28;;;;;;;;;;;;;;;15.43;55.83;96776.44;5054391;28;19957;-75
2022/05/28 05:53:54;;;;;;;;;;;;;;;15.46;57.75;96798.16;5054129;28;20401;-76
2022/05/28 05:56:19;;;;;;;;;;;;;;;15.49;55.59;96784.44;5054100;28;19993;-76
2022/05/28 05:58:45;;;;;;;;;;;;;;;15.66;55.05;96784.44;5036451;28;19962;-76
2022/05/28 06:01:11;;;;;;;;;;;;;;;15.81;55.14;96792.59;5054237;28;19954;-76
2022/05/28 06:03:44;;;;;;;;;;;;;;;15.97;55.40;96793.63;5054069;28;20376;-75
2022/05/28 06:06:12;;;;;;;;;;;;;;;16.12;57.22;96815.00;5054008;28;19956;-75
2022/05/28 06:08:38;;;;;;;;;;;;;;;16.06;51.60;96754.34;5054010;28;20381;-75
2022/05/28 06:11:04;;;;;;;;;;;;;;;16.03;49.59;96734.47;5053543;28;20073;-75
2022/05/28 06:13:30;;;;;;;;;;;;;;;15.99;51.73;96757.94;5053646;28;19976;-76
2022/05/28 06:15:55;;;;;;;;;;;;;;;16.04;49.88;96728.13;5053838;28;20028;-76
2022/05/28 06:18:21;;;;;;;;;;;;;;;16.04;50.97;96746.63;5053613;28;19962;-76
2022/05/28 06:20:49;;;;;;;;;;;;;;;16.16;51.45;96743.88;5053887;28;19958;-76
2022/05/28 06:23:16;;;;;;;;;;;;;;;16.14;51.11;96746.75;5053654;28;19958;-75
2022/05/28 06:25:42;;;;;;;;;;;;;;;16.08;50.62;96731.06;5053771;28;19963;-76
2022/05/28 06:28:08;;;;;;;;;;;;;;;16.10;49.38;96735.06;5053377;28;19986;-72
2022/05/28 06:30:33;;;;;;;;;;;;;;;16.07;51.17;96750.66;5053516;28;19957;-72
2022/05/28 06:32:59;;;;;;;;;;;;;;;16.11;47.07;96718.16;5053535;28;19990;-76
2022/05/28 06:35:25;;;;;;;;;;;;;;;16.24;49.28;96775.22;5053471;28;19946;-76
2022/05/28 06:37:52;;;;;;;;;;;;;;;16.47;49.49;96795.34;5053662;28;20414;-76
2022/05/28 06:40:18;;;;;;;;;;;;;;;16.76;49.34;96790.63;5052404;28;19967;-75
2022/05/28 06:42:46;;;;;;;;;;;;;;;17.06;47.80;96796.53;5053345;28;19966;-75
2022/05/28 06:45:14;;;;;;;;;;;;;;;17.29;48.73;96803.38;5053880;28;19951;-75
2022/05/28 06:47:41;;;;;;;;;;;;;;;17.45;51.37;96853.63;5053581;28;19957;-75
2022/05/28 06:52:51;;;;;;;;;;;;;;;17.49;43.01;96826.59;5053550;28;19959;-75
2022/05/28 06:55:17;;;;;;;;;;;;;;;17.41;47.80;96876.38;5053630;28;20095;-75
2022/05/28 06:57:43;;;;;;;;;;;;;;;17.45;44.99;96843.03;5041144;28;19970;-75
2022/05/28 07:00:09;;;;;;;;;;;;;;;17.53;44.26;96846.25;5053484;28;19986;-75
2022/05/28 07:02:35;;;;;;;;;;;;;;;17.45;45.50;96863.44;5052189;28;19950;-75
2022/05/28 07:05:01;;;;;;;;;;;;;;;17.49;44.86;96875.13;5053280;28;19960;-75
2022/05/28 07:07:27;;;;;;;;;;;;;;;17.53;47.54;96886.81;5035559;28;19985;-76
2022/05/28 07:09:53;;;;;;;;;;;;;;;17.50;42.06;96855.50;5053172;28;19952;-75
2022/05/28 07:12:19;;;;;;;;;;;;;;;17.42;44.14;96870.03;5053382;28;20018;-76
2022/05/28 07:14:44;;;;;;;;;;;;;;;17.50;47.30;96891.84;5053545;28;20065;-76
2022/05/28 07:17:10;;;;;;;;;;;;;;;17.55;43.41;96871.47;5053209;28;20000;-76
2022/05/28 07:19:36;;;;;;;;;;;;;;;17.52;41.97;96873.84;5053177;28;19970;-76
2022/05/28 07:22:02;;;;;;;;;;;;;;;17.52;43.36;96877.28;5053169;28;19954;-77
2022/05/28 07:24:28;;;;;;;;;;;;;;;17.61;43.29;96870.44;5053158;28;19953;-76
2022/05/28 07:26:54;;;;;;;;;;;;;;;17.67;40.97;96868.66;5053182;28;19983;-76
2022/05/28 07:29:20;;;;;;;;;;;;;;;17.62;43.23;96880.03;5052953;28;20443;-76
2022/05/28 07:31:46;;;;;;;;;;;;;;;17.50;43.85;96887.34;5053021;28;19956;-76
2022/05/28 07:34:12;;;;;;;;;;;;;;;17.47;43.25;96868.47;5053139;28;20014;-76
2022/05/28 07:36:38;;;;;;;;;;;;;;;17.58;43.63;96878.13;5053074;28;19961;-76
2022/05/28 07:39:04;;;;;;;;;;;;;;;17.67;42.09;96860.69;5053320;28;20462;-76
2022/05/28 07:41:30;;;;;;;;;;;;;;;17.71;40.80;96853.03;5053109;28;19955;-76
2022/05/28 07:43:56;;;;;;;;;;;;;;;17.77;44.83;96875.91;5053119;28;19963;-76
2022/05/28 07:46:23;;;;;;;;;;;;;;;17.81;43.76;96866.38;5052951;28;19982;-76
2022/05/28 07:48:49;;;;;;;;;;;;;;;17.78;43.13;96861.56;5052826;28;19958;-76
2022/05/28 07:51:16;;;;;;;;;;;;;;;17.75;43.39;96867.41;5052290;28;20416;-76
2022/05/28 07:53:42;;;;;;;;;;;;;;;17.77;44.07;96858.13;5056834;28;19984;-76
2022/05/28 07:56:08;;;;;;;;;;;;;;;17.64;40.91;96847.94;5056585;28;20322;-76
2022/05/28 07:58:34;;;;;;;;;;;;;;;17.62;40.75;96840.25;5056756;28;19971;-76
2022/05/28 08:01:01;;;;;;;;;;;;;;;17.77;41.69;96852.03;5056366;28;19955;-76
2022/05/28 08:03:27;;;;;;;;;;;;;;;17.76;39.94;96834.50;5038729;28;19955;-76
2022/05/28 08:05:54;;;;;;;;;;;;;;;17.67;39.26;96833.38;5055861;28;19959;-76
2022/05/28 08:08:21;;;;;;;;;;;;;;;17.64;38.88;96832.03;5056338;28;19946;-76
2022/05/28 08:10:48;;;;;;;;;;;;;;;17.37;44.07;96858.59;5056399;28;19967;-76
2022/05/28 08:13:15;;;;;;;;;;;;;;;17.18;41.72;96843.03;5056141;28;19977;-76
2022/05/28 08:15:42;;;;;;;;;;;;;;;17.14;41.90;96849.88;5055981;28;20021;-76
2022/05/28 08:18:09;;;;;;;;;;;;;;;17.17;44.40;96857.31;5056000;28;19953;-76
2022/05/28 08:23:19;;;;;;;;;;;;;;;17.17;40.85;96844.06;5056192;28;19947;-75
2022/05/28 08:25:45;;;;;;;;;;;;;;;17.10;38.53;96832.09;5055925;28;19962;-76
2022/05/28 08:28:12;;;;;;;;;;;;;;;17.14;38.92;96835.84;5056278;28;19953;-76
2022/05/28 08:30:39;;;;;;;;;;;;;;;17.13;41.29;96848.25;5055962;28;19964;-75
2022/05/28 08:33:43;;;;;;;;;;;;;;;17.20;40.56;96845.44;5033456;28;20002;-76
2022/05/28 08:36:10;;;;;;;;;;;;;;;17.22;41.26;96838.03;5033744;28;19955;-76
2022/05/28 08:38:37;;;;;;;;;;;;;;;17.23;43.20;96858.97;5033694;28;19983;-74
2022/05/28 08:41:12;;;;;;;;;;;;;;;17.49;43.35;96861.88;5033501;28;19948;-74
2022/05/28 08:43:41;;;;;;;;;;;;;;;17.72;41.36;96842.16;5033484;28;20456;-74
2022/05/28 08:46:08;;;;;;;;;;;;;;;17.94;37.36;96823.53;5053368;28;20413;-73
2022/05/28 08:48:39;;;;;;;;;;;;;;;18.09;40.73;96836.09;5055328;28;20409;-74
2022/05/28 08:51:08;;;;;;;;;;;;;;;18.16;40.35;96822.59;5055855;28;19961;-74
2022/05/28 08:53:36;;;;;;;;;;;;;;;18.05;36.19;96819.88;5055339;28;19945;-74
2022/05/28 08:56:03;;;;;;;;;;;;;;;18.04;40.27;96836.06;5055228;28;19949;-74
2022/05/28 08:58:30;;;;;;;;;;;;;;;18.23;36.74;96816.00;5055118;28;19964;-74
2022/05/28 09:01:16;;;;;;;;;;;;;;;18.38;36.96;96815.28;5055622;28;20328;-76
2022/05/28 09:03:54;;;;;;;;;;;;;;;18.37;35.27;96808.38;5054304;28;19951;-76
2022/05/28 09:06:31;;;;;;;;;;;;;;;18.16;36.85;96810.09;5055042;28;19967;-75
2022/05/28 09:08:57;;;;;;;;;;;;;;;17.95;38.25;96819.00;5055400;28;19967;-75
2022/05/28 09:11:34;;;;;;;;;;;;;;;17.85;39.15;96817.91;5054824;28;19986;-76
2022/05/28 09:14:08;;;;;;;;;;;;;;;17.50;39.04;96821.03;5054908;28;20329;-76
2022/05/28 09:16:36;;;;;;;;;;;;;;;17.36;41.70;96838.41;5054977;28;19956;-75
2022/05/28 09:19:14;;;;;;;;;;;;;;;17.51;41.28;96835.88;5037132;28;20453;-76
2022/05/28 09:21:40;;;;;;;;;;;;;;;17.62;37.96;96811.06;5045297;28;19950;-75
2022/05/28 09:24:09;;;;;;;;;;;;;;;17.84;40.29;96826.88;5055075;28;19956;-75
2022/05/28 09:26:50;;;;;;;;;;;;;;;17.93;39.20;96811.31;5054077;28;19954;-75
2022/05/28 09:29:39;;;;;;;;;;;;;;;17.71;38.98;96832.63;5054610;28;19970;-76
2022/05/28 09:32:24;;;;;;;;;;;;;;;17.55;37.74;96805.16;5006498;28;19958;-75
2022/05/28 09:35:13;;;;;;;;;;;;;;;17.73;38.75;96811.94;5045305;28;19961;-76
2022/05/28 09:37:42;;;;;;;;;;;;;;;17.82;39.40;96814.91;5043284;28;19963;-75
2022/05/28 09:40:37;;;;;;;;;;;;;;;17.85;38.93;96809.16;5054382;28;19971;-75
2022/05/28 09:43:20;;;;;;;;;;;;;;;17.94;38.89;96804.16;5048814;28;19966;-75
2022/05/28 09:46:06;;;;;;;;;;;;;;;17.89;38.44;96804.09;5041308;28;19954;-76
2022/05/28 09:48:31;;;;;;;;;;;;;;;17.89;37.96;96796.16;5041472;28;19951;-75
2022/05/28 09:50:57;;;;;;;;;;;;;;;17.85;37.83;96795.88;5036766;28;19976;-76
2022/05/28 09:56:36;;;;;;;;;;;;;;;17.99;38.19;96788.25;5054229;28;19952;-75
2022/05/28 09:59:17;;;;;;;;;;;;;;;18.02;36.44;96785.88;5054198;28;19970;-75
2022/05/28 10:01:50;;;;;;;;;;;;;;;18.08;37.81;96785.91;5054300;28;19949;-75
2022/05/28 10:04:31;;;;;;;;;;;;;;;17.99;37.06;96782.94;5036686;28;19955;-75
2022/05/28 10:06:59;;;;;;;;;;;;;;;17.84;39.04;96791.63;5054113;28;20427;-75
2022/05/28 10:09:27;;;;;;;;;;;;;;;17.60;38.27;96791.97;5054184;28;20323;-75
2022/05/28 10:11:59;;;;;;;;;;;;;;;17.45;38.31;96787.34;5053663;28;19991;-75
2022/05/28 10:14:28;;;;;;;;;;;;;;;17.25;38.79;96787.94;5054260;28;19959;-75
2022/05/28 10:16:55;;;;;;;;;;;;;;;17.11;38.63;96792.06;5053646;28;19960;-75
2022/05/28 10:19:29;;;;;;;;;;;;;;;17.04;38.56;96788.81;5052291;28;19961;-75
2022/05/28 10:21:56;;;;;;;;;;;;;;;17.13;38.80;96787.31;5054146;28;19951;-75
2022/05/28 10:24:24;;;;;;;;;;;;;;;17.25;38.51;96781.84;5053600;28;19949;-75
2022/05/28 10:26:52;;;;;;;;;;;;;;;17.39;37.18;96763.69;5053973;28;19956;-75
2022/05/28 10:29:37;;;;;;;;;;;;;;;17.45;38.40;96778.59;5053775;28;19956;-75
2022/05/28 10:32:15;;;;;;;;;;;;;;;17.55;38.46;96777.84;5053866;28;20416;-75
2022/05/28 10:34:41;;;;;;;;;;;;;;;17.73;37.10;96761.53;5053646;28;19968;-75
2022/05/28 10:37:08;;;;;;;;;;;;;;;17.93;38.42;96778.66;5053753;28;20058;-75
2022/05/28 10:39:37;;;;;;;;;;;;;;;18.02;37.67;96766.53;5053686;28;20336;-75
2022/05/28 10:42:04;;;;;;;;;;;;;;;18.09;37.59;96772.38;5053489;28;19957;-76
2022/05/28 10:44:30;;;;;;;;;;;;;;;18.11;38.15;96770.28;5053413;28;19959;-75
2022/05/28 10:47:14;;;;;;;;;;;;;;;18.17;33.81;96753.31;5053621;28;19968;-75
2022/05/28 10:49:58;;;;;;;;;;;;;;;17.98;38.11;96776.84;5053671;28;20349;-75
2022/05/28 10:52:24;;;;;;;;;;;;;;;17.93;38.72;96776.00;5040058;28;19958;-75
2022/05/28 10:55:05;;;;;;;;;;;;;;;17.84;36.81;96757.13;5052461;28;19967;-75
2022/05/28 10:57:50;;;;;;;;;;;;;;;17.73;38.93;96774.00;5053414;28;19946;-75
2022/05/28 11:00:21;;;;;;;;;;;;;;;17.55;39.54;96778.63;5053689;28;19976;-75
2022/05/28 11:03:02;;;;;;;;;;;;;;;17.55;38.74;96772.53;5053326;28;19954;-75
2022/05/28 11:06:15;;;;;;;;;;;;;;;17.70;39.69;96777.97;5026997;28;19947;-75
2022/05/28 11:09:01;;;;;;;;;;;;;;;17.83;38.06;96755.53;5052342;28;19950;-75
2022/05/28 11:11:43;;;;;;;;;;;;;;;17.85;39.38;96756.88;5053109;28;20330;-75
2022/05/28 11:14:21;;;;;;;;;;;;;;;18.17;38.04;96744.56;5053524;28;19962;-76
2022/05/28 11:16:56;;;;;;;;;;;;;;;18.37;38.12;96743.81;5053422;28;19961;-75
2022/05/28 11:19:32;;;;;;;;;;;;;;;18.46;36.53;96726.34;5053132;28;19970;-76
2022/05/28 11:22:04;;;;;;;;;;;;;;;18.43;36.30;96732.16;5053115;28;19966;-75
2022/05/28 11:24:30;;;;;;;;;;;;;;;18.31;35.96;96727.09;5053267;28;19960;-76
2022/05/28 11:26:56;;;;;;;;;;;;;;;18.25;35.89;96725.47;5054315;28;20039;-76
2022/05/28 11:29:21;;;;;;;;;;;;;;;18.20;36.85;96730.75;5039363;28;19955;-76
2022/05/28 11:31:54;;;;;;;;;;;;;;;18.26;37.04;96725.19;5057107;28;20479;-76
2022/05/28 11:34:31;;;;;;;;;;;;;;;18.24;36.93;96721.22;5056799;28;19962;-76
2022/05/28 11:37:15;;;;;;;;;;;;;;;18.08;37.58;96722.22;5056940;28;19956;-76
2022/05/28 11:40:03;;;;;;;;;;;;;;;17.95;38.45;96734.88;5049149;28;19965;-76
2022/05/28 11:42:47;;;;;;;;;;;;;;;17.72;37.96;96722.00;5056893;28;20425;-76
2022/05/28 11:45:17;;;;;;;;;;;;;;;17.65;38.32;96717.72;5056908;28;20338;-76
2022/05/28 11:47:43;;;;;;;;;;;;;;;17.64;38.24;96720.66;5056635;28;20408;-76
2022/05/28 11:53:18;;;;;;;;;;;;;;;17.62;38.60;96712.94;5056709;28;19961;-75
2022/05/28 11:55:45;;;;;;;;;;;;;;;17.56;38.49;96711.31;5056694;28;19954;-76
2022/05/28 11:58:17;;;;;;;;;;;;;;;17.55;38.50;96704.38;5056796;28;19976;-75
2022/05/28 12:00:55;;;;;;;;;;;;;;;17.58;38.78;96706.53;5056645;28;19974;-76
2022/05/28 12:03:22;;;;;;;;;;;;;;;17.71;38.95;96699.19;5055828;28;19956;-75
2022/05/28 12:05:48;;;;;;;;;;;;;;;17.95;38.71;96697.75;5056502;28;19956;-76
2022/05/28 12:08:26;;;;;;;;;;;;;;;17.98;37.61;96683.97;5056447;28;19957;-76
2022/05/28 12:11:01;;;;;;;;;;;;;;;17.85;38.00;96679.94;5038109;28;19953;-76
2022/05/28 12:13:32;;;;;;;;;;;;;;;17.81;36.64;96686.78;5056030;28;19961;-77
2022/05/28 12:16:07;;;;;;;;;;;;;;;17.65;34.72;96666.53;5056389;28;19969;-76
2022/05/28 12:18:34;;;;;;;;;;;;;;;17.51;36.58;96678.66;5056069;28;19948;-76
2022/05/28 12:21:00;;;;;;;;;;;;;;;17.45;36.79;96669.88;5056010;28;20363;-75
2022/05/28 12:23:31;;;;;;;;;;;;;;;17.40;37.90;96669.84;5055992;28;19968;-75
2022/05/28 12:25:57;;;;;;;;;;;;;;;17.43;38.39;96683.38;5056001;28;19953;-76
2022/05/28 12:28:25;;;;;;;;;;;;;;;17.50;37.96;96677.06;5056153;28;20312;-76
2022/05/28 12:30:53;;;;;;;;;;;;;;;17.60;37.34;96669.97;5055916;28;19946;-76
2022/05/28 12:33:25;;;;;;;;;;;;;;;17.82;37.56;96664.50;5055999;28;19961;-75
2022/05/28 12:35:54;;;;;;;;;;;;;;;17.97;36.59;96652.38;5055955;28;19957;-76
2022/05/28 12:38:29;;;;;;;;;;;;;;;18.20;37.11;96653.78;5054611;28;19951;-76
2022/05/28 12:40:57;;;;;;;;;;;;;;;18.24;35.54;96639.72;5054679;28;19983;-76
2022/05/28 12:43:31;;;;;;;;;;;;;;;18.27;35.97;96649.03;5055569;28;19953;-76
2022/05/28 12:45:59;;;;;;;;;;;;;;;18.42;35.86;96633.13;5052330;28;19964;-76
2022/05/28 12:48:32;;;;;;;;;;;;;;;18.78;36.58;96632.38;5055698;28;19962;-75
2022/05/28 12:51:10;;;;;;;;;;;;;;;19.08;34.93;96625.47;5041197;28;19946;-75
2022/05/28 12:53:55;;;;;;;;;;;;;;;19.15;34.31;96610.03;5054577;28;19962;-75
2022/05/28 12:56:33;;;;;;;;;;;;;;;19.02;33.57;96616.69;5037666;28;19956;-75
2022/05/28 12:59:26;;;;;;;;;;;;;;;18.78;34.31;96614.59;5055489;28;19965;-75
2022/05/28 13:02:16;;;;;;;;;;;;;;;18.53;34.98;96623.31;5016749;28;19950;-75
2022/05/28 13:04:47;;;;;;;;;;;;;;;18.40;35.02;96615.88;5044310;28;19957;-75
2022/05/28 13:07:32;;;;;;;;;;;;;;;18.42;35.89;96616.41;5055437;28;19956;-75
2022/05/28 13:10:07;;;;;;;;;;;;;;;18.54;35.08;96614.31;5055352;28;19973;-75
2022/05/28 13:12:37;;;;;;;;;;;;;;;18.79;35.23;96605.56;5055379;28;19990;-75
2022/05/28 13:15:16;;;;;;;;;;;;;;;18.95;33.15;96590.41;5055071;28;19954;-75